Notice: Undefined index: wukey in /home/mhd-01/www.meteocavagnano.it/htdocs/weather28/wuforecast/wualmanac.php on line 27
WARNING - Change wsUserSettings.php: $SITE["topfolder"] from : weather28/ to: /home/mhd/www.meteocavagnano.it/htdocs/weather28/
Thunderstorms From: 10-07-2020 11:00 Until: 16:59 warning for: Thunderstorms Level: Yellow info button

warning for Thunderstorms more information blitzortung!


Visit our other weather sites:

Template documentation
and downloads

And another site



Nearby METAR Reports

   
EHVK - Volkel Rnlafb, Netherlands
Distance from station: SW 18 km
Updated: 10-07-2020 08:25
Heavy Drizzle, Mostly Cloudy  
Heavy Drizzle, Mostly Cloudy  
   Wind: WSW 18.5 km/h
Wind: WSW 18.5 km/h
Temperature: 16°C
Dew Point: 16°C
Humidity: 100%
Barometer: 1007 hPa
Clouds: Mostly Cloudy
Visibility: 2 km
Cloud details: Few Clouds 300 ft,
Partly Cloudy 400 ft,
Mostly Cloudy 600 ft
EHVK 100625Z AUTO 24010KT 1900 +DZ FEW003 SCT004 BKN006 16/16 Q1007 YLO
EDLV - Niederrhein, Germany
Distance from station: SE 25 km
Updated: 10-07-2020 08:20
Light Drizzle, Mostly Cloudy  
Light Drizzle, Mostly Cloudy  
   Wind: SW 16.7 km/h
Wind: SW 16.7 km/h
Temperature: 16°C
Dew Point: 15°C
Humidity: 94%
Barometer: 1008 hPa
Clouds: Mostly Cloudy
Visibility: 9 km
Cloud details: Mostly Cloudy 600 ft
EDLV 100620Z 23009KT 9000 -DZ BKN006 16/15 Q1008
EHDL - Deelen Rnlafb, Netherlands
Distance from station: N 35 km
Updated: 10-07-2020 08:25
Light Drizzle, Mostly Cloudy  
Light Drizzle, Mostly Cloudy  
   Wind: WNW 13 km/h
Wind: WNW 13 km/h
Temperature: 15°C
Dew Point: 15°C
Humidity: 100%
Barometer: 1007 hPa
Clouds: Mostly Cloudy
Visibility: 9 km
Cloud details: Partly Cloudy 400 ft,
Mostly Cloudy 600 ft,
Mostly Cloudy 1100 ft
EHDL 100625Z AUTO 29007KT 240V010 9000 -DZ SCT004 BKN006 BKN011 15/15 Q1007 REDZ YLO
EHEH - Eindhoven Rnlafb, Netherlands
Distance from station: SW 48 km
Updated: 10-07-2020 08:40
Mist, Mostly Cloudy  
Mist, Mostly Cloudy  
   Wind: WSW 20.4 km/h
Wind: WSW 20.4 km/h
Temperature: 16°C
Dew Point: 16°C
Humidity: 100%
Barometer: 1008 hPa
Clouds: Mostly Cloudy
Visibility: 5 km
Cloud details: Few Clouds 400 ft,
Mostly Cloudy 700 ft,
Mostly Cloudy 800 ft
EHEH 100640Z AUTO 24011KT 200V280 5000 BR FEW004 BKN007 BKN008 16/16 Q1008 GRN 25012G22KT 6000 -RADZ SCT006 BKN008 OVC012 TEMPO 2000 DZRA FEW003 SCT004 OVC006
EHGR - Gilze-Rijen Rnla, Netherlands
Distance from station: WSW 70 km
Updated: 10-07-2020 08:36
Light Rain, Overcast  
Light Rain, Overcast  
   Wind: WNW 18.5 km/h
Wind: WNW 18.5 km/h
Temperature: 16°C
Dew Point: 15°C
Humidity: 94%
Barometer: 1009 hPa
Clouds: Overcast
Visibility: More than 10 km
Cloud details: Mostly Cloudy 600 ft,
Mostly Cloudy 700 ft,
Overcast 800 ft
EHGR 100636Z AUTO 29010KT 250V330 9999 -RA BKN006 BKN007 OVC008 16/15 Q1009 YLO
EBBL - Kleine-Brogel(Ba, Belgium
Distance from station: SSW 71 km
Updated: 10-07-2020 08:25
Mostly Cloudy  
Mostly Cloudy  
   Wind: WSW 20.4 km/h
Wind: WSW 20.4 km/h
Temperature: 17°C
Dew Point: 15°C
Humidity: 88%
Barometer: 1009 hPa
Clouds: Mostly Cloudy
Visibility: More than 10 km
Cloud details: Mostly Cloudy 1100 ft
EBBL 100625Z 24011KT 9999 BKN011 17/15 Q1009 GRN GRN TEMPO YLO

Script developed by  Saratoga-weather.org Adapted for the template by  Weerstation Leuven

Equipment we use:

Weather-station
Davis VP2

Weather-program
Meteobridge

Davis VP2

Meteobridge